Time;durP1;ratioP1;P1;durP2;ratioP2;P2;SDS_P1;SDS_P2;PMS_P1;PMS_P2;Temp;Humidity;BMP_temperature;BMP_pressure;BME280_temperature;BME280_humidity;BME280_pressure;Samples;Min_cycle;Max_cycle;Signal;HPM_P1;HPM_P2
2022/07/19 00:01:33;;;;;;;8.52;1.90;;;;;;;19.77;84.83;97005.53;5022303;28;20475;-72
2022/07/19 00:03:59;;;;;;;4.97;1.98;;;;;;;19.53;82.71;97000.13;5023953;28;20045;-72
2022/07/19 00:06:25;;;;;;;5.70;1.90;;;;;;;19.38;83.17;96995.72;5022905;28;20585;-72
2022/07/19 00:08:50;;;;;;;4.10;1.95;;;;;;;19.40;83.30;96998.94;5022910;28;20315;-72
2022/07/19 00:11:16;;;;;;;6.50;2.00;;;;;;;19.40;85.12;96996.22;5026194;28;20033;-73
2022/07/19 00:13:41;;;;;;;4.70;1.83;;;;;;;19.31;83.40;96991.75;5023028;28;20037;-72
2022/07/19 00:16:07;;;;;;;4.35;1.75;;;;;;;19.31;82.74;96992.56;5025148;28;20055;-72
2022/07/19 00:18:32;;;;;;;9.02;2.10;;;;;;;19.27;82.92;96994.22;5023517;28;20037;-72
2022/07/19 00:20:57;;;;;;;6.18;1.98;;;;;;;19.20;82.20;96994.56;5022439;28;20025;-72
2022/07/19 00:23:23;;;;;;;7.47;1.75;;;;;;;19.11;83.31;96982.75;5021978;28;20106;-72
2022/07/19 00:25:48;;;;;;;7.55;2.35;;;;;;;19.12;79.80;96986.28;5022753;28;20046;-72
2022/07/19 00:28:16;;;;;;;7.00;1.90;;;;;;;19.18;80.27;96983.22;5024621;28;20052;-71
2022/07/19 00:30:42;;;;;;;6.15;1.70;;;;;;;19.16;81.18;96982.72;5022836;28;20021;-72
2022/07/19 00:33:08;;;;;;;8.93;1.60;;;;;;;19.11;79.98;96981.97;5024944;28;20446;-72
2022/07/19 00:35:40;;;;;;;8.55;1.80;;;;;;;19.10;80.93;96986.56;5024353;28;20048;-72
2022/07/19 00:38:07;;;;;;;4.93;1.50;;;;;;;19.08;79.79;96977.94;5024589;28;20630;-72
2022/07/19 00:40:33;;;;;;;7.30;1.90;;;;;;;19.00;81.57;96986.72;5023486;28;20033;-72
2022/07/19 00:42:59;;;;;;;5.10;1.85;;;;;;;18.98;80.38;96986.16;5024247;28;20388;-72
2022/07/19 00:45:24;;;;;;;5.90;1.73;;;;;;;19.01;79.68;96985.63;5022982;28;20063;-72
2022/07/19 00:47:52;;;;;;;6.65;2.10;;;;;;;19.01;78.79;96984.81;5024646;28;20286;-72
2022/07/19 00:50:19;;;;;;;9.10;1.90;;;;;;;19.10;77.02;96974.91;5022590;28;20440;-72
2022/07/19 00:52:48;;;;;;;5.97;1.80;;;;;;;19.11;77.03;96974.63;5023057;28;20124;-72
2022/07/19 00:55:16;;;;;;;5.50;1.65;;;;;;;19.04;79.06;96976.06;5026656;28;20033;-72
2022/07/19 00:57:42;;;;;;;8.40;1.85;;;;;;;18.86;79.52;96978.47;5023721;28;20470;-72
2022/07/19 01:00:09;;;;;;;6.85;1.65;;;;;;;18.82;79.97;96984.72;5024536;28;20057;-72
2022/07/19 01:02:36;;;;;;;6.07;2.10;;;;;;;18.84;77.22;96982.56;5023116;28;20064;-72
2022/07/19 01:05:02;;;;;;;8.18;1.73;;;;;;;18.90;77.17;96981.38;5025351;28;20060;-72
2022/07/19 01:07:28;;;;;;;5.32;1.95;;;;;;;18.87;76.22;96977.34;5023003;28;20029;-72
2022/07/19 01:09:54;;;;;;;11.32;1.85;;;;;;;18.82;78.25;96982.03;5024096;28;20453;-72
2022/07/19 01:12:22;;;;;;;7.03;3.15;;;;;;;18.72;79.63;96977.53;5024411;28;20151;-72
2022/07/19 01:14:49;;;;;;;7.00;1.90;;;;;;;18.64;81.11;96991.69;5027075;28;20029;-73
2022/07/19 01:17:14;;;;;;;6.38;2.05;;;;;;;18.62;79.29;96985.75;5034164;28;20437;-72
2022/07/19 01:19:42;;;;;;;11.60;1.80;;;;;;;18.58;80.54;96988.22;5027155;28;20021;-72
2022/07/19 01:22:07;;;;;;;4.28;2.10;;;;;;;18.57;78.69;96981.19;5028373;28;20471;-71
2022/07/19 01:24:33;;;;;;;9.43;1.98;;;;;;;18.64;77.97;96983.56;5029349;28;20430;-72
2022/07/19 01:26:58;;;;;;;5.05;1.50;;;;;;;18.62;77.86;96981.13;5028251;28;20080;-72
2022/07/19 01:29:24;;;;;;;3.70;1.77;;;;;;;18.59;77.77;96983.59;5026333;28;20392;-72
2022/07/19 01:31:50;;;;;;;7.10;1.67;;;;;;;18.56;80.29;96982.28;5028877;28;20794;-72
2022/07/19 01:34:15;;;;;;;6.55;1.85;;;;;;;18.46;79.79;96990.50;5025579;28;20126;-72
2022/07/19 01:36:41;;;;;;;6.70;2.67;;;;;;;18.40;80.72;96983.53;5025649;28;20037;-71
2022/07/19 01:39:06;;;;;;;4.43;2.30;;;;;;;18.32;80.32;96995.78;5026692;28;20040;-72
2022/07/19 01:41:32;;;;;;;7.20;2.20;;;;;;;18.26;81.01;96988.78;5026862;28;20431;-72
2022/07/19 01:43:57;;;;;;;4.20;1.60;;;;;;;18.19;81.57;96982.09;5026684;28;20079;-72
2022/07/19 01:46:23;;;;;;;8.82;1.80;;;;;;;18.21;81.47;96990.72;5027520;28;20052;-72
2022/07/19 01:48:48;;;;;;;8.27;1.92;;;;;;;18.22;80.65;96985.03;5025666;28;20032;-72
2022/07/19 01:51:13;;;;;;;5.53;2.20;;;;;;;18.26;80.73;96987.97;5029193;28;20025;-72
2022/07/19 01:53:39;;;;;;;8.52;2.10;;;;;;;18.24;81.53;96990.19;5026903;28;20091;-72
2022/07/19 01:56:06;;;;;;;8.90;2.03;;;;;;;18.16;80.69;96985.38;5029732;28;20048;-72
2022/07/19 01:58:32;;;;;;;6.00;1.83;;;;;;;18.16;80.32;96979.97;5024805;28;20280;-72
2022/07/19 02:01:00;;;;;;;10.45;2.05;;;;;;;18.17;80.64;96981.56;5027746;28;20392;-72
2022/07/19 02:03:26;;;;;;;6.55;1.60;;;;;;;18.22;79.12;96984.25;5024738;28;20028;-72
2022/07/19 02:05:51;;;;;;;6.07;1.40;;;;;;;18.20;80.53;96973.66;5027836;28;20073;-72
2022/07/19 02:08:17;;;;;;;4.90;1.80;;;;;;;18.14;80.67;96979.44;5026936;28;20088;-72
2022/07/19 02:10:42;;;;;;;6.82;1.80;;;;;;;18.07;81.37;96977.84;5025429;28;20470;-72
2022/07/19 02:13:08;;;;;;;10.40;2.10;;;;;;;18.01;80.27;96970.88;5025641;28;20037;-72
2022/07/19 02:15:33;;;;;;;8.23;1.73;;;;;;;17.99;82.65;96977.66;5024827;28;20414;-72
2022/07/19 02:18:00;;;;;;;8.18;1.90;;;;;;;17.98;81.29;96966.03;5025388;28;20034;-72
2022/07/19 02:20:25;;;;;;;4.22;1.75;;;;;;;17.96;80.35;96968.19;5023656;28;20551;-72
2022/07/19 02:22:51;;;;;;;4.90;1.90;;;;;;;18.04;78.94;96966.78;5029227;28;20037;-72
2022/07/19 02:25:16;;;;;;;4.43;1.73;;;;;;;18.08;78.32;96970.53;5025727;28;20048;-72
2022/07/19 02:27:42;;;;;;;10.70;1.70;;;;;;;18.09;78.44;96964.84;5024977;28;20025;-72
2022/07/19 02:30:09;;;;;;;5.28;1.60;;;;;;;18.18;78.38;96961.50;5025825;28;20037;-72
2022/07/19 02:32:34;;;;;;;4.72;1.65;;;;;;;18.17;78.48;96963.41;5027054;28;20054;-72
2022/07/19 02:35:00;;;;;;;7.45;1.88;;;;;;;18.13;78.08;96962.34;5025892;28;20029;-72
2022/07/19 02:37:28;;;;;;;6.32;1.67;;;;;;;18.13;77.17;96956.94;5024252;28;20472;-72
2022/07/19 02:39:53;;;;;;;4.50;2.03;;;;;;;18.10;78.21;96954.81;5040936;28;20218;-72
2022/07/19 02:42:18;;;;;;;7.45;1.83;;;;;;;18.09;79.79;96955.91;5022726;28;20111;-72
2022/07/19 02:44:44;;;;;;;5.20;1.80;;;;;;;18.06;79.72;96951.88;5028042;28;20440;-72
2022/07/19 02:47:09;;;;;;;5.35;1.88;;;;;;;18.01;79.19;96954.63;5026425;28;20028;-72
2022/07/19 02:49:35;;;;;;;5.05;1.90;;;;;;;17.99;78.72;96950.59;5022688;28;20270;-72
2022/07/19 02:52:00;;;;;;;5.35;1.80;;;;;;;17.95;79.86;96955.75;5027359;28;20116;-72
2022/07/19 02:54:25;;;;;;;4.72;1.48;;;;;;;18.00;78.04;96950.28;5024758;28;20136;-72
2022/07/19 02:56:51;;;;;;;4.00;1.90;;;;;;;18.01;77.89;96943.78;5025353;28;20388;-75
2022/07/19 02:59:19;;;;;;;7.47;1.88;;;;;;;18.09;76.10;96947.78;5023636;28;20491;-73
2022/07/19 03:01:45;;;;;;;7.32;2.17;;;;;;;18.12;76.13;96949.91;5025596;28;20433;-72
2022/07/19 03:04:10;;;;;;;6.65;1.88;;;;;;;18.12;77.50;96943.69;5026614;28;20457;-72
2022/07/19 03:06:36;;;;;;;3.97;1.90;;;;;;;18.02;77.70;96950.81;5025208;28;20369;-72
2022/07/19 03:09:01;;;;;;;10.32;1.77;;;;;;;18.01;76.46;96951.91;5024663;28;20037;-73
2022/07/19 03:11:27;;;;;;;8.35;2.20;;;;;;;17.94;78.99;96947.91;5023672;28;20025;-72
2022/07/19 03:13:52;;;;;;;5.82;1.90;;;;;;;17.96;77.34;96948.44;5026206;28;20717;-73
2022/07/19 03:16:18;;;;;;;4.60;1.83;;;;;;;17.95;78.11;96949.53;5024813;28;20846;-73
2022/07/19 03:18:43;;;;;;;4.72;1.95;;;;;;;17.95;79.99;96946.81;5025966;28;20050;-73
2022/07/19 03:21:08;;;;;;;4.22;1.70;;;;;;;17.92;79.63;96953.63;5024837;28;20041;-72
2022/07/19 03:23:36;;;;;;;6.32;1.95;;;;;;;17.88;79.23;96952.56;5022751;28;20032;-72
2022/07/19 03:26:03;;;;;;;6.85;1.85;;;;;;;17.77;80.32;96953.72;5026119;28;20310;-72
2022/07/19 03:28:28;;;;;;;5.68;2.05;;;;;;;17.68;81.27;96958.91;5023125;28;20558;-72
2022/07/19 03:30:54;;;;;;;3.67;1.60;;;;;;;17.64;83.43;96954.34;5024589;28;20056;-72
2022/07/19 03:33:19;;;;;;;3.13;1.70;;;;;;;17.60;82.17;96943.28;5024427;28;20044;-72
2022/07/19 03:35:46;;;;;;;6.70;1.67;;;;;;;17.65;80.88;96940.50;5025260;28;20022;-72
2022/07/19 03:38:13;;;;;;;5.03;1.90;;;;;;;17.78;78.89;96939.09;5026160;28;20202;-72
2022/07/19 03:40:39;;;;;;;7.07;2.20;;;;;;;17.85;78.28;96942.31;5024019;28;20028;-72
2022/07/19 03:43:05;;;;;;;6.78;1.95;;;;;;;17.94;77.08;96942.50;5027165;28;20433;-72
2022/07/19 03:45:30;;;;;;;8.15;1.98;;;;;;;18.00;75.72;96941.38;5024224;28;20459;-72
2022/07/19 03:47:56;;;;;;;5.82;1.88;;;;;;;18.03;77.64;96946.22;5025099;28;20065;-72
2022/07/19 03:50:21;;;;;;;7.38;1.80;;;;;;;17.99;78.40;96947.88;5021823;28;20658;-72
2022/07/19 03:52:47;;;;;;;7.72;2.00;;;;;;;17.88;79.90;96949.84;5021935;28;20029;-72
2022/07/19 03:55:12;;;;;;;7.97;2.80;;;;;;;17.87;80.60;96956.34;5023587;28;20321;-72
2022/07/19 03:57:38;;;;;;;4.68;1.70;;;;;;;17.86;80.15;96948.53;5022329;28;20713;-73
2022/07/19 04:00:04;;;;;;;8.15;2.25;;;;;;;17.88;78.77;96947.13;5040474;28;20061;-73
2022/07/19 04:02:37;;;;;;;4.97;1.85;;;;;;;17.94;78.69;96964.97;5024333;28;20033;-73
2022/07/19 04:05:03;;;;;;;5.13;2.03;;;;;;;17.97;78.30;96953.56;5041208;28;20360;-73
2022/07/19 04:07:28;;;;;;;4.13;2.08;;;;;;;18.02;79.08;96955.41;5031482;28;20060;-73
2022/07/19 04:09:54;;;;;;;9.45;3.05;;;;;;;18.02;77.06;96956.22;5022672;28;20402;-72
2022/07/19 04:12:19;;;;;;;6.13;1.83;;;;;;;18.02;78.99;96960.84;5022979;28;20387;-73
2022/07/19 04:14:45;;;;;;;9.82;2.00;;;;;;;18.05;78.33;96963.81;5023541;28;20429;-73
2022/07/19 04:17:10;;;;;;;5.47;1.70;;;;;;;18.08;77.74;96963.22;5025053;28;20454;-73
2022/07/19 04:19:36;;;;;;;5.35;2.08;;;;;;;18.18;76.01;96950.69;5025012;28;20317;-73
2022/07/19 04:22:02;;;;;;;6.18;1.95;;;;;;;18.30;75.23;96960.06;5037079;28;20135;-74
2022/07/19 04:24:27;;;;;;;6.40;1.83;;;;;;;18.45;72.46;96958.28;5027193;28;20039;-72
2022/07/19 04:26:53;;;;;;;6.78;2.08;;;;;;;18.56;71.53;96948.94;5006776;28;20447;-72
2022/07/19 04:29:18;;;;;;;4.65;1.80;;;;;;;18.71;70.25;96961.56;5025412;28;20300;-72
2022/07/19 04:31:44;;;;;;;6.75;1.85;;;;;;;18.81;69.39;96950.59;5024051;28;20507;-73
2022/07/19 04:34:09;;;;;;;3.40;1.73;;;;;;;18.82;71.27;96949.50;5023023;28;20048;-72
2022/07/19 04:36:34;;;;;;;4.75;1.75;;;;;;;18.84;69.90;96956.25;5024213;28;20032;-72
2022/07/19 04:39:00;;;;;;;4.97;1.80;;;;;;;18.88;69.96;96946.44;5024210;28;20500;-73
2022/07/19 04:41:26;;;;;;;8.18;1.95;;;;;;;19.00;70.22;96953.38;5021999;28;20395;-72
2022/07/19 04:43:51;;;;;;;11.70;2.72;;;;;;;19.05;70.29;96956.00;5023660;28;20041;-73
2022/07/19 04:46:16;;;;;;;5.43;2.10;;;;;;;19.13;68.61;96955.34;5024512;28;20041;-72
2022/07/19 04:48:42;;;;;;;5.82;1.92;;;;;;;19.20;69.30;96953.09;5028073;28;20547;-72
2022/07/19 04:51:07;;;;;;;6.20;2.00;;;;;;;19.26;69.79;96954.63;5026604;28;20033;-72
2022/07/19 04:53:33;;;;;;;7.18;1.83;;;;;;;19.32;69.92;96949.97;5026701;28;20033;-72
2022/07/19 04:55:58;;;;;;;7.97;1.48;;;;;;;19.36;70.20;96956.41;5027222;28;20033;-72
2022/07/19 04:58:24;;;;;;;5.47;1.80;;;;;;;19.49;67.76;96951.06;5025840;28;20589;-72
2022/07/19 05:00:49;;;;;;;6.93;1.98;;;;;;;19.61;67.65;96953.38;5027469;28;20029;-72
2022/07/19 05:03:15;;;;;;;4.28;2.00;;;;;;;19.74;66.38;96944.47;5028189;28;20099;-73
2022/07/19 05:05:40;;;;;;;6.57;1.75;;;;;;;19.90;65.52;96947.75;5028360;28;20040;-72
2022/07/19 05:08:06;;;;;;;9.43;1.92;;;;;;;20.08;62.95;96948.81;5026138;28;20440;-72
2022/07/19 05:10:31;;;;;;;5.68;1.50;;;;;;;20.17;66.44;96941.59;5028019;28;20036;-72
2022/07/19 05:12:57;;;;;;;5.75;1.80;;;;;;;20.24;67.51;96954.81;5030831;28;20527;-72
2022/07/19 05:15:23;;;;;;;6.35;1.73;;;;;;;20.33;64.13;96946.78;5025315;28;20037;-72
2022/07/19 05:17:48;;;;;;;9.23;1.95;;;;;;;20.41;63.39;96946.88;5030954;28;20522;-72
2022/07/19 05:20:15;;;;;;;8.88;2.22;;;;;;;20.48;63.00;96944.63;5026365;28;20032;-73
2022/07/19 05:22:42;;;;;;;5.72;1.90;;;;;;;20.58;62.14;96941.69;5027393;28;20112;-72
2022/07/19 05:25:09;;;;;;;5.28;1.75;;;;;;;20.66;60.69;96945.63;5028905;28;20030;-73
2022/07/19 05:27:35;;;;;;;4.55;1.80;;;;;;;20.76;59.93;96948.13;5029114;28;20059;-72
2022/07/19 05:30:01;;;;;;;4.18;1.70;;;;;;;20.85;62.21;96942.81;5029687;28;20029;-72
2022/07/19 05:32:26;;;;;;;6.38;1.70;;;;;;;20.93;62.58;96936.66;5025129;28;20053;-72
2022/07/19 05:34:52;;;;;;;4.88;1.70;;;;;;;21.02;61.26;96939.50;5026878;28;20399;-72
2022/07/19 05:37:17;;;;;;;3.28;1.88;;;;;;;21.11;61.77;96935.75;5027520;28;20334;-72
2022/07/19 05:39:43;;;;;;;6.95;1.98;;;;;;;21.18;64.00;96932.63;5026768;28;20136;-72
2022/07/19 05:42:09;;;;;;;7.63;1.90;;;;;;;21.27;63.15;96936.25;5026118;28;20080;-72
2022/07/19 05:44:34;;;;;;;4.13;1.70;;;;;;;21.35;61.18;96938.25;5024739;28;20185;-72
2022/07/19 05:46:59;;;;;;;5.50;1.83;;;;;;;21.48;60.33;96943.94;5025538;28;20518;-72
2022/07/19 05:49:25;;;;;;;4.15;1.98;;;;;;;21.57;59.47;96937.50;5025413;28;20041;-72
2022/07/19 05:51:50;;;;;;;6.47;2.00;;;;;;;21.65;61.06;96942.19;5027202;28;20144;-72
2022/07/19 05:54:17;;;;;;;5.25;2.20;;;;;;;21.72;61.94;96943.69;5026183;28;20068;-73
2022/07/19 05:56:43;;;;;;;6.95;1.95;;;;;;;21.80;62.13;96940.25;5028079;28;20526;-72
2022/07/19 05:59:08;;;;;;;9.00;2.08;;;;;;;21.88;61.16;96940.31;5025367;28;20036;-72
2022/07/19 06:01:34;;;;;;;5.15;2.08;;;;;;;21.99;60.38;96935.41;5025517;28;20037;-72
2022/07/19 06:03:59;;;;;;;10.85;2.10;;;;;;;22.11;59.66;96945.78;5027310;28;20450;-72
2022/07/19 06:06:28;;;;;;;5.22;1.90;;;;;;;22.19;59.51;96948.56;5024413;28;20379;-72
2022/07/19 06:08:57;;;;;;;5.82;2.08;;;;;;;22.31;59.38;96955.34;5026386;28;20036;-72
2022/07/19 06:11:23;;;;;;;6.75;1.75;;;;;;;22.42;60.42;96957.50;5026767;28;20029;-75
2022/07/19 06:13:49;;;;;;;9.43;1.95;;;;;;;22.48;61.14;96953.50;5029906;28;20869;-72
2022/07/19 06:16:15;;;;;;;6.20;1.98;;;;;;;22.57;59.49;96948.13;5027419;28;20051;-73
2022/07/19 06:18:41;;;;;;;10.45;2.05;;;;;;;22.64;59.26;96940.28;5026124;28;20091;-72
2022/07/19 06:21:12;;;;;;;7.55;1.90;;;;;;;22.73;59.45;96946.59;5026934;28;20123;-72
2022/07/19 06:23:39;;;;;;;13.13;1.88;;;;;;;22.85;60.63;96942.44;5024860;28;20554;-72
2022/07/19 06:26:05;;;;;;;6.88;1.60;;;;;;;22.92;58.85;96943.63;5031763;28;20047;-72
2022/07/19 06:28:31;;;;;;;4.25;1.98;;;;;;;23.01;61.15;96946.38;5029182;28;20037;-73
2022/07/19 06:30:56;;;;;;;7.20;1.85;;;;;;;23.11;59.58;96939.81;5026123;28;20523;-72
2022/07/19 06:33:22;;;;;;;11.00;2.33;;;;;;;23.22;55.92;96941.13;5025684;28;20135;-72
2022/07/19 06:35:48;;;;;;;8.23;2.20;;;;;;;23.33;55.65;96947.91;5024186;28;20029;-72
2022/07/19 06:38:14;;;;;;;6.90;2.15;;;;;;;23.47;50.84;96945.84;5027672;28;20037;-72
2022/07/19 06:40:40;;;;;;;5.75;1.90;;;;;;;23.55;52.06;96953.22;5025107;28;20542;-72
2022/07/19 06:43:06;;;;;;;9.80;2.13;;;;;;;23.60;53.24;96958.56;5041106;28;20122;-73
2022/07/19 06:45:31;;;;;;;4.72;1.80;;;;;;;23.65;54.90;96954.06;5036940;28;20337;-72
2022/07/19 06:47:57;;;;;;;5.40;1.80;;;;;;;23.76;51.68;96952.63;5027785;28;20037;-72
2022/07/19 06:50:23;;;;;;;6.13;1.70;;;;;;;23.87;48.49;96954.72;5023953;28;20037;-72
2022/07/19 06:52:48;;;;;;;10.73;2.05;;;;;;;23.95;49.27;96947.63;5024910;28;20049;-72
2022/07/19 06:55:14;;;;;;;5.53;2.00;;;;;;;24.00;51.88;96947.47;5027197;28;21076;-73
2022/07/19 06:57:40;;;;;;;4.35;1.58;;;;;;;24.07;53.82;96942.31;5025085;28;20269;-72
2022/07/19 07:00:07;;;;;;;4.65;1.50;;;;;;;24.10;51.56;96943.59;5023652;28;20097;-72
2022/07/19 07:02:35;;;;;;;6.90;1.60;;;;;;;24.16;51.28;96942.31;5026358;28;20037;-72
2022/07/19 07:05:00;;;;;;;4.60;1.63;;;;;;;24.21;46.69;96950.34;5025288;28;20044;-72
2022/07/19 07:07:26;;;;;;;9.85;1.90;;;;;;;24.25;48.13;96950.50;5023391;28;20044;-73
2022/07/19 07:09:51;;;;;;;7.30;1.70;;;;;;;24.36;46.95;96960.81;5024795;28;20112;-72
2022/07/19 07:12:17;;;;;;;5.45;1.80;;;;;;;24.50;46.33;96952.38;5025489;28;20039;-73
2022/07/19 07:14:42;;;;;;;6.38;1.70;;;;;;;24.61;46.42;96958.31;5024126;28;20025;-72
2022/07/19 07:17:10;;;;;;;4.75;1.70;;;;;;;24.67;45.85;96960.56;5024511;28;20040;-72
2022/07/19 07:19:35;;;;;;;7.82;1.85;;;;;;;24.77;47.51;96964.06;5023929;28;20131;-73
2022/07/19 07:22:01;;;;;;;5.05;1.42;;;;;;;24.86;47.78;96959.34;5027300;28;20423;-73
2022/07/19 07:24:27;;;;;;;4.63;1.55;;;;;;;24.93;45.93;96948.69;5025107;28;20033;-73
2022/07/19 07:26:53;;;;;;;10.15;1.80;;;;;;;25.01;48.31;96953.31;5024520;28;20265;-73
2022/07/19 07:29:19;;;;;;;4.35;1.60;;;;;;;25.04;47.19;96949.94;5024456;28;20037;-73
2022/07/19 07:31:44;;;;;;;11.20;2.10;;;;;;;25.12;43.24;96956.50;5023741;28;20091;-74
2022/07/19 07:34:10;;;;;;;3.83;1.60;;;;;;;25.22;43.03;96951.47;5025824;28;20319;-73
2022/07/19 07:36:36;;;;;;;5.57;1.80;;;;;;;25.32;39.86;96955.75;5022827;28;20033;-73
2022/07/19 07:39:02;;;;;;;3.25;1.45;;;;;;;25.42;38.94;96954.56;5023817;28;20055;-75
2022/07/19 07:41:27;;;;;;;5.45;1.55;;;;;;;25.51;38.10;96952.56;5023214;28;20392;-73
2022/07/19 07:43:53;;;;;;;6.05;1.80;;;;;;;25.63;38.64;96957.31;5026811;28;21043;-73
2022/07/19 07:46:18;;;;;;;11.20;2.03;;;;;;;25.67;39.38;96961.00;5025916;28;20095;-73
2022/07/19 07:48:44;;;;;;;5.82;1.58;;;;;;;25.75;38.00;96954.66;5022704;28;20051;-74
2022/07/19 07:51:09;;;;;;;6.00;1.70;;;;;;;25.79;37.43;96947.41;5025259;28;20042;-73
2022/07/19 07:53:35;;;;;;;8.65;1.52;;;;;;;25.86;35.37;96952.34;5025464;28;21265;-74
2022/07/19 07:56:00;;;;;;;8.50;1.60;;;;;;;25.91;35.93;96955.66;5024083;28;20488;-73
2022/07/19 07:58:26;;;;;;;3.92;1.58;;;;;;;25.99;37.14;96960.28;5022098;28;20119;-76
2022/07/19 08:00:51;;;;;;;6.47;1.63;;;;;;;26.08;36.81;96949.25;5039654;28;20037;-74
2022/07/19 08:03:17;;;;;;;5.75;1.33;;;;;;;26.20;34.11;96943.78;5023150;28;20030;-75
2022/07/19 08:05:47;;;;;;;7.38;1.55;;;;;;;26.31;34.34;96946.94;5026582;28;20095;-73
2022/07/19 08:08:16;;;;;;;5.15;1.75;;;;;;;26.38;34.58;96944.41;5025455;28;20041;-72
2022/07/19 08:10:42;;;;;;;4.97;1.52;;;;;;;26.48;34.47;96945.97;5025866;28;20025;-73
2022/07/19 08:13:08;;;;;;;17.65;1.90;;;;;;;26.60;34.78;96943.22;5032588;28;20078;-73
2022/07/19 08:15:38;;;;;;;3.78;1.40;;;;;;;26.71;35.65;96949.91;5021779;28;20071;-73
2022/07/19 08:18:04;;;;;;;5.45;1.73;;;;;;;26.83;34.91;96944.41;5030315;28;20592;-74
2022/07/19 08:20:30;;;;;;;6.75;1.45;;;;;;;26.88;32.01;96944.19;5022206;28;20045;-73
2022/07/19 08:22:55;;;;;;;6.13;1.48;;;;;;;26.94;32.84;96937.34;5031931;28;20088;-73
2022/07/19 08:25:21;;;;;;;4.43;1.60;;;;;;;27.01;32.66;96935.97;5027459;28;20135;-73
2022/07/19 08:27:47;;;;;;;5.75;1.40;;;;;;;27.14;32.86;96932.09;5029881;28;20036;-73
2022/07/19 08:30:13;;;;;;;3.97;1.50;;;;;;;27.19;32.60;96931.88;5025364;28;20061;-73
2022/07/19 08:32:39;;;;;;;9.07;1.70;;;;;;;27.21;32.98;96924.06;5024085;28;20115;-73
2022/07/19 08:35:06;;;;;;;9.35;1.60;;;;;;;27.36;31.41;96926.13;5029495;28;20167;-72
2022/07/19 08:37:31;;;;;;;10.55;1.50;;;;;;;27.42;31.10;96932.97;5025110;28;20033;-73
2022/07/19 08:39:57;;;;;;;6.78;1.40;;;;;;;27.43;30.83;96934.56;5028313;28;20029;-73
2022/07/19 08:42:24;;;;;;;3.42;1.48;;;;;;;27.51;32.00;96932.03;5024912;28;20030;-72
2022/07/19 08:44:54;;;;;;;3.17;1.40;;;;;;;27.54;29.85;96939.59;5028177;28;20123;-72
2022/07/19 08:47:20;;;;;;;4.63;1.55;;;;;;;27.54;30.47;96936.84;5025902;28;20496;-73
2022/07/19 08:49:46;;;;;;;3.00;1.30;;;;;;;27.64;30.40;96944.63;5032107;28;20045;-73
2022/07/19 08:52:12;;;;;;;7.25;1.50;;;;;;;27.70;31.22;96935.00;5029451;28;20037;-73
2022/07/19 08:54:39;;;;;;;3.15;1.60;;;;;;;27.84;30.70;96940.91;5026389;28;20044;-72
2022/07/19 08:59:49;;;;;;;6.40;1.80;;;;;;;27.93;30.00;96940.75;5027334;28;20070;-72
2022/07/19 09:02:15;;;;;;;5.80;1.65;;;;;;;27.96;31.54;96938.13;5027046;28;20464;-73
2022/07/19 09:04:41;;;;;;;5.43;1.58;;;;;;;28.10;30.77;96935.00;5026937;28;20298;-73
2022/07/19 09:07:06;;;;;;;4.78;1.42;;;;;;;28.15;28.80;96922.91;5027903;28;20124;-73
2022/07/19 09:09:36;;;;;;;3.70;1.50;;;;;;;28.22;29.85;96934.13;5026061;28;20041;-73
2022/07/19 09:12:03;;;;;;;6.43;1.60;;;;;;;28.37;29.34;96927.88;5027659;28;20043;-74
2022/07/19 09:14:31;;;;;;;7.65;1.70;;;;;;;28.37;29.94;96924.31;5025911;28;20128;-73
2022/07/19 09:17:19;;;;;;;13.73;1.65;;;;;;;28.53;28.87;96927.91;5029031;28;20566;-72
2022/07/19 09:19:46;;;;;;;3.92;1.52;;;;;;;28.49;28.05;96929.78;5026175;28;20075;-73
2022/07/19 09:22:15;;;;;;;3.97;1.50;;;;;;;28.53;27.60;96927.91;5027972;28;20500;-73
2022/07/19 09:24:46;;;;;;;5.72;1.50;;;;;;;28.55;28.69;96931.88;5033471;28;20035;-73
2022/07/19 09:27:14;;;;;;;6.78;1.50;;;;;;;28.63;27.55;96927.38;5028861;28;20112;-73
2022/07/19 09:29:54;;;;;;;6.63;1.70;;;;;;;28.70;27.99;96915.75;5028213;28;20292;-73
2022/07/19 09:32:22;;;;;;;4.63;1.85;;;;;;;28.67;26.94;96919.22;5024009;28;20053;-74
2022/07/19 09:34:48;;;;;;;4.32;1.50;;;;;;;28.80;28.78;96921.53;5029045;28;20083;-73
2022/07/19 09:37:25;;;;;;;4.63;1.60;;;;;;;28.99;27.39;96911.78;5027880;28;20099;-73
2022/07/19 09:39:52;;;;;;;5.13;1.73;;;;;;;29.01;27.34;96925.97;5044021;28;20421;-73
2022/07/19 09:42:36;;;;;;;6.07;1.52;;;;;;;29.08;27.85;96921.44;5024797;28;20543;-74
2022/07/19 09:45:25;;;;;;;5.32;1.63;;;;;;;29.25;26.69;96917.50;5027979;28;20040;-73
2022/07/19 09:47:50;;;;;;;7.15;1.58;;;;;;;29.24;26.50;96912.34;5027353;28;20024;-73
2022/07/19 09:50:21;;;;;;;4.07;1.75;;;;;;;29.25;27.89;96911.19;5026802;28;20025;-74
2022/07/19 09:52:48;;;;;;;4.13;1.80;;;;;;;29.45;26.91;96912.03;5041095;28;20493;-73
2022/07/19 09:55:15;;;;;;;4.85;1.70;;;;;;;29.62;27.75;96904.16;5028264;28;20039;-74
2022/07/19 09:57:48;;;;;;;4.38;1.60;;;;;;;29.50;26.48;96912.59;5026114;28;20041;-73
2022/07/19 10:00:15;;;;;;;5.95;1.80;;;;;;;29.56;26.55;96910.31;5025972;28;20376;-73
2022/07/19 10:02:43;;;;;;;11.68;1.85;;;;;;;29.74;27.61;96908.75;5026771;28;20067;-73
2022/07/19 10:05:10;;;;;;;5.47;1.48;;;;;;;29.74;26.26;96902.44;5026933;28;20044;-74
2022/07/19 10:07:36;;;;;;;5.50;1.65;;;;;;;29.93;27.42;96911.50;5025253;28;20037;-73
2022/07/19 10:10:11;;;;;;;6.43;2.05;;;;;;;30.15;27.01;96917.47;5028911;28;20048;-73
2022/07/19 10:12:39;;;;;;;5.93;2.20;;;;;;;29.96;25.96;96904.47;5024132;28;20061;-73
2022/07/19 10:15:06;;;;;;;6.15;1.52;;;;;;;30.00;26.21;96904.53;5027341;28;20083;-73
2022/07/19 10:17:31;;;;;;;7.50;1.60;;;;;;;29.92;26.79;96904.41;5025714;28;20035;-73
2022/07/19 10:19:57;;;;;;;10.32;1.70;;;;;;;30.15;26.71;96910.00;5027589;28;20033;-73
2022/07/19 10:22:24;;;;;;;6.97;2.00;;;;;;;30.24;27.73;96907.00;5027857;28;21736;-74
2022/07/19 10:24:58;;;;;;;9.05;1.52;;;;;;;30.29;26.11;96900.41;5027892;28;20496;-73
2022/07/19 10:27:24;;;;;;;6.93;1.92;;;;;;;30.33;26.77;96892.97;5026891;28;20550;-74
2022/07/19 10:30:13;;;;;;;7.65;2.10;;;;;;;30.58;26.89;96894.22;5024625;28;20037;-73
2022/07/19 10:32:40;;;;;;;10.60;1.77;;;;;;;30.92;27.65;96886.13;5020380;28;20232;-73
2022/07/19 10:35:15;;;;;;;5.82;1.70;;;;;;;31.08;27.03;96875.72;5029322;28;20072;-73
2022/07/19 10:37:42;;;;;;;7.20;2.20;;;;;;;31.06;26.84;96883.59;5026454;28;20451;-73
2022/07/19 10:40:08;;;;;;;5.82;1.98;;;;;;;31.02;26.31;96874.44;5028905;28;20036;-74
2022/07/19 10:42:34;;;;;;;3.35;1.55;;;;;;;31.03;26.88;96887.88;5039568;28;20028;-73
2022/07/19 10:45:02;;;;;;;8.15;2.00;;;;;;;31.16;26.95;96877.41;5023164;28;20109;-73
2022/07/19 10:47:40;;;;;;;11.88;2.33;;;;;;;31.40;26.81;96870.69;5023492;28;20231;-73
2022/07/19 10:50:10;;;;;;;5.43;1.77;;;;;;;31.58;26.24;96870.91;5025292;28;20438;-73
2022/07/19 10:52:39;;;;;;;9.07;2.00;;;;;;;31.60;25.61;96871.34;5024262;28;20087;-73
2022/07/19 10:55:18;;;;;;;5.97;2.20;;;;;;;31.36;25.65;96864.28;5026806;28;20083;-72
2022/07/19 10:57:46;;;;;;;5.38;2.30;;;;;;;31.78;25.64;96866.84;5024309;28;20033;-73
2022/07/19 11:00:20;;;;;;;8.02;1.90;;;;;;;32.07;26.42;96861.66;5027638;28;20025;-73
2022/07/19 11:02:47;;;;;;;5.43;1.90;;;;;;;32.45;25.86;96860.47;5026617;28;20546;-74
2022/07/19 11:05:27;;;;;;;6.47;2.00;;;;;;;32.31;24.53;96855.59;5029574;28;20083;-74
2022/07/19 11:07:54;;;;;;;8.18;2.33;;;;;;;32.16;25.69;96862.94;5028360;28;20035;-73
2022/07/19 11:10:25;;;;;;;7.80;2.15;;;;;;;32.69;24.93;96856.34;5025377;28;20104;-73
2022/07/19 11:12:51;;;;;;;7.60;2.15;;;;;;;32.99;25.64;96854.19;5024737;28;20045;-74
2022/07/19 11:15:16;;;;;;;10.00;2.20;;;;;;;33.17;25.99;96857.09;5023357;28;20645;-73
2022/07/19 11:18:02;;;;;;;6.22;2.50;;;;;;;33.03;24.47;96853.44;5024601;28;20195;-72
2022/07/19 11:20:30;;;;;;;8.18;2.63;;;;;;;33.30;24.91;96849.25;5021344;28;20048;-73
2022/07/19 11:22:57;;;;;;;4.70;2.10;;;;;;;33.82;24.06;96849.91;5039503;28;20110;-73
2022/07/19 11:25:28;;;;;;;7.07;2.10;;;;;;;34.23;23.12;96849.66;5024314;28;20040;-72
2022/07/19 11:27:55;;;;;;;4.93;2.00;;;;;;;35.07;22.39;96848.13;5026577;28;20037;-73
2022/07/19 11:30:23;;;;;;;8.73;2.58;;;;;;;36.47;22.15;96840.06;5026634;28;20021;-73
2022/07/19 11:33:01;;;;;;;11.25;2.25;;;;;;;37.88;18.59;96836.28;5027452;28;20045;-73